sensor_id;sensor_type;location;lat;lon;timestamp;P1;durP1;ratioP1;P2;durP2;ratioP2
41897;SDS011;27576;53.366;-1.498;2023-07-20T00:02:13;4.63;;;2.60;;
41897;SDS011;27576;53.366;-1.498;2023-07-20T00:04:39;5.32;;;2.45;;
41897;SDS011;27576;53.366;-1.498;2023-07-20T00:07:04;6.63;;;2.30;;
41897;SDS011;27576;53.366;-1.498;2023-07-20T00:09:30;3.25;;;2.60;;
41897;SDS011;27576;53.366;-1.498;2023-07-20T00:11:56;5.43;;;2.10;;
41897;SDS011;27576;53.366;-1.498;2023-07-20T00:14:21;5.03;;;2.42;;
41897;SDS011;27576;53.366;-1.498;2023-07-20T00:16:47;4.18;;;2.63;;
41897;SDS011;27576;53.366;-1.498;2023-07-20T00:19:14;3.78;;;2.53;;
41897;SDS011;27576;53.366;-1.498;2023-07-20T00:21:41;3.05;;;2.20;;
41897;SDS011;27576;53.366;-1.498;2023-07-20T00:24:07;2.45;;;2.20;;
41897;SDS011;27576;53.366;-1.498;2023-07-20T00:26:32;3.53;;;2.42;;
41897;SDS011;27576;53.366;-1.498;2023-07-20T00:28:58;3.80;;;2.20;;
41897;SDS011;27576;53.366;-1.498;2023-07-20T00:31:23;3.88;;;2.95;;
41897;SDS011;27576;53.366;-1.498;2023-07-20T00:33:48;3.60;;;2.65;;
41897;SDS011;27576;53.366;-1.498;2023-07-20T00:36:14;4.85;;;2.83;;
41897;SDS011;27576;53.366;-1.498;2023-07-20T00:38:39;4.03;;;2.95;;
41897;SDS011;27576;53.366;-1.498;2023-07-20T00:41:05;6.20;;;2.83;;
41897;SDS011;27576;53.366;-1.498;2023-07-20T00:43:31;4.43;;;2.47;;
41897;SDS011;27576;53.366;-1.498;2023-07-20T00:45:56;4.18;;;2.75;;
41897;SDS011;27576;53.366;-1.498;2023-07-20T00:48:22;5.75;;;2.83;;
41897;SDS011;27576;53.366;-1.498;2023-07-20T00:50:48;4.75;;;3.05;;
41897;SDS011;27576;53.366;-1.498;2023-07-20T00:53:15;8.25;;;3.45;;
41897;SDS011;27576;53.366;-1.498;2023-07-20T00:55:40;3.88;;;2.70;;
41897;SDS011;27576;53.366;-1.498;2023-07-20T00:58:06;4.78;;;2.95;;
41897;SDS011;27576;53.366;-1.498;2023-07-20T01:00:32;4.10;;;2.90;;
41897;SDS011;27576;53.366;-1.498;2023-07-20T01:02:57;5.82;;;2.60;;
41897;SDS011;27576;53.366;-1.498;2023-07-20T01:05:24;3.70;;;3.00;;
41897;SDS011;27576;53.366;-1.498;2023-07-20T01:07:59;3.95;;;2.45;;
41897;SDS011;27576;53.366;-1.498;2023-07-20T01:10:33;6.28;;;3.33;;
41897;SDS011;27576;53.366;-1.498;2023-07-20T01:13:04;3.90;;;2.95;;
41897;SDS011;27576;53.366;-1.498;2023-07-20T01:15:33;3.92;;;2.80;;
41897;SDS011;27576;53.366;-1.498;2023-07-20T01:17:59;5.10;;;2.78;;
41897;SDS011;27576;53.366;-1.498;2023-07-20T01:20:26;3.85;;;2.55;;
41897;SDS011;27576;53.366;-1.498;2023-07-20T01:25:44;3.22;;;2.80;;
41897;SDS011;27576;53.366;-1.498;2023-07-20T01:31:30;4.53;;;2.75;;
41897;SDS011;27576;53.366;-1.498;2023-07-20T01:34:00;7.20;;;2.75;;
41897;SDS011;27576;53.366;-1.498;2023-07-20T01:36:28;4.32;;;2.63;;
41897;SDS011;27576;53.366;-1.498;2023-07-20T01:38:55;3.25;;;2.63;;
41897;SDS011;27576;53.366;-1.498;2023-07-20T01:41:21;4.38;;;2.72;;
41897;SDS011;27576;53.366;-1.498;2023-07-20T01:43:48;8.25;;;2.97;;
41897;SDS011;27576;53.366;-1.498;2023-07-20T01:46:13;3.10;;;2.80;;
41897;SDS011;27576;53.366;-1.498;2023-07-20T01:48:39;6.15;;;2.80;;
41897;SDS011;27576;53.366;-1.498;2023-07-20T01:51:04;2.95;;;2.72;;
41897;SDS011;27576;53.366;-1.498;2023-07-20T01:53:29;4.43;;;3.03;;
41897;SDS011;27576;53.366;-1.498;2023-07-20T01:55:56;8.13;;;3.03;;
41897;SDS011;27576;53.366;-1.498;2023-07-20T01:58:21;3.53;;;2.72;;
41897;SDS011;27576;53.366;-1.498;2023-07-20T02:00:47;5.35;;;2.80;;
41897;SDS011;27576;53.366;-1.498;2023-07-20T02:03:12;4.55;;;3.03;;
41897;SDS011;27576;53.366;-1.498;2023-07-20T02:05:38;5.15;;;3.15;;
41897;SDS011;27576;53.366;-1.498;2023-07-20T02:08:03;4.57;;;3.25;;
41897;SDS011;27576;53.366;-1.498;2023-07-20T02:10:29;5.38;;;3.17;;
41897;SDS011;27576;53.366;-1.498;2023-07-20T02:12:54;5.85;;;3.47;;
41897;SDS011;27576;53.366;-1.498;2023-07-20T02:15:20;6.22;;;3.03;;
41897;SDS011;27576;53.366;-1.498;2023-07-20T02:17:46;3.67;;;3.08;;
41897;SDS011;27576;53.366;-1.498;2023-07-20T02:20:11;3.22;;;2.95;;
41897;SDS011;27576;53.366;-1.498;2023-07-20T02:22:37;3.63;;;3.10;;
41897;SDS011;27576;53.366;-1.498;2023-07-20T02:25:06;4.10;;;3.40;;
41897;SDS011;27576;53.366;-1.498;2023-07-20T02:27:36;5.00;;;2.85;;
41897;SDS011;27576;53.366;-1.498;2023-07-20T02:30:02;3.72;;;3.10;;
41897;SDS011;27576;53.366;-1.498;2023-07-20T02:32:28;4.32;;;3.03;;
41897;SDS011;27576;53.366;-1.498;2023-07-20T02:34:54;9.70;;;2.78;;
41897;SDS011;27576;53.366;-1.498;2023-07-20T02:37:19;7.38;;;3.05;;
41897;SDS011;27576;53.366;-1.498;2023-07-20T02:39:45;4.93;;;3.10;;
41897;SDS011;27576;53.366;-1.498;2023-07-20T02:42:10;4.93;;;2.80;;
41897;SDS011;27576;53.366;-1.498;2023-07-20T02:44:36;3.97;;;2.90;;
41897;SDS011;27576;53.366;-1.498;2023-07-20T02:47:01;3.55;;;3.10;;
41897;SDS011;27576;53.366;-1.498;2023-07-20T02:49:27;3.38;;;3.08;;
41897;SDS011;27576;53.366;-1.498;2023-07-20T02:51:52;4.57;;;2.80;;
41897;SDS011;27576;53.366;-1.498;2023-07-20T02:54:18;3.53;;;2.70;;
41897;SDS011;27576;53.366;-1.498;2023-07-20T02:56:43;2.67;;;2.42;;
41897;SDS011;27576;53.366;-1.498;2023-07-20T02:59:09;5.47;;;2.80;;
41897;SDS011;27576;53.366;-1.498;2023-07-20T03:01:35;3.13;;;2.60;;
41897;SDS011;27576;53.366;-1.498;2023-07-20T03:04:00;5.07;;;3.08;;
41897;SDS011;27576;53.366;-1.498;2023-07-20T03:06:27;3.63;;;3.30;;
41897;SDS011;27576;53.366;-1.498;2023-07-20T03:08:52;4.90;;;3.33;;
41897;SDS011;27576;53.366;-1.498;2023-07-20T03:11:19;3.65;;;2.88;;
41897;SDS011;27576;53.366;-1.498;2023-07-20T03:13:46;3.00;;;2.70;;
41897;SDS011;27576;53.366;-1.498;2023-07-20T03:16:13;4.97;;;3.47;;
41897;SDS011;27576;53.366;-1.498;2023-07-20T03:18:44;3.90;;;2.85;;
41897;SDS011;27576;53.366;-1.498;2023-07-20T03:21:09;6.20;;;3.30;;
41897;SDS011;27576;53.366;-1.498;2023-07-20T03:23:39;6.03;;;3.08;;
41897;SDS011;27576;53.366;-1.498;2023-07-20T03:26:05;6.35;;;3.53;;
41897;SDS011;27576;53.366;-1.498;2023-07-20T03:28:33;4.47;;;3.17;;
41897;SDS011;27576;53.366;-1.498;2023-07-20T03:30:59;5.93;;;3.33;;
41897;SDS011;27576;53.366;-1.498;2023-07-20T03:33:28;3.40;;;3.10;;
41897;SDS011;27576;53.366;-1.498;2023-07-20T03:35:54;5.25;;;3.00;;
41897;SDS011;27576;53.366;-1.498;2023-07-20T03:38:21;3.22;;;2.92;;
41897;SDS011;27576;53.366;-1.498;2023-07-20T03:40:50;3.08;;;2.80;;
41897;SDS011;27576;53.366;-1.498;2023-07-20T03:43:16;6.22;;;3.38;;
41897;SDS011;27576;53.366;-1.498;2023-07-20T03:45:42;3.70;;;3.25;;
41897;SDS011;27576;53.366;-1.498;2023-07-20T03:48:07;3.22;;;2.75;;
41897;SDS011;27576;53.366;-1.498;2023-07-20T03:50:33;6.18;;;3.72;;
41897;SDS011;27576;53.366;-1.498;2023-07-20T03:52:58;5.63;;;3.30;;
41897;SDS011;27576;53.366;-1.498;2023-07-20T03:55:24;3.92;;;3.10;;
41897;SDS011;27576;53.366;-1.498;2023-07-20T03:57:49;5.45;;;3.85;;
41897;SDS011;27576;53.366;-1.498;2023-07-20T04:00:16;5.13;;;3.45;;
41897;SDS011;27576;53.366;-1.498;2023-07-20T04:02:42;4.45;;;3.78;;
41897;SDS011;27576;53.366;-1.498;2023-07-20T04:05:07;5.68;;;3.83;;
41897;SDS011;27576;53.366;-1.498;2023-07-20T04:07:33;4.50;;;3.90;;
41897;SDS011;27576;53.366;-1.498;2023-07-20T04:09:58;4.78;;;3.45;;
41897;SDS011;27576;53.366;-1.498;2023-07-20T04:12:24;4.20;;;3.47;;
41897;SDS011;27576;53.366;-1.498;2023-07-20T04:14:49;4.43;;;3.50;;
41897;SDS011;27576;53.366;-1.498;2023-07-20T04:17:14;6.45;;;3.80;;
41897;SDS011;27576;53.366;-1.498;2023-07-20T04:19:40;5.35;;;3.38;;
41897;SDS011;27576;53.366;-1.498;2023-07-20T04:22:05;6.82;;;3.85;;
41897;SDS011;27576;53.366;-1.498;2023-07-20T04:24:30;5.88;;;4.03;;
41897;SDS011;27576;53.366;-1.498;2023-07-20T04:26:56;5.65;;;4.45;;
41897;SDS011;27576;53.366;-1.498;2023-07-20T04:29:21;5.68;;;3.95;;
41897;SDS011;27576;53.366;-1.498;2023-07-20T04:31:46;6.60;;;3.80;;
41897;SDS011;27576;53.366;-1.498;2023-07-20T04:34:12;4.93;;;4.00;;
41897;SDS011;27576;53.366;-1.498;2023-07-20T04:36:37;7.43;;;4.10;;
41897;SDS011;27576;53.366;-1.498;2023-07-20T04:39:03;5.53;;;4.75;;
41897;SDS011;27576;53.366;-1.498;2023-07-20T04:41:28;5.85;;;4.75;;
41897;SDS011;27576;53.366;-1.498;2023-07-20T04:43:53;7.93;;;4.70;;
41897;SDS011;27576;53.366;-1.498;2023-07-20T04:46:19;7.07;;;4.70;;
41897;SDS011;27576;53.366;-1.498;2023-07-20T04:48:46;7.40;;;4.78;;
41897;SDS011;27576;53.366;-1.498;2023-07-20T04:51:12;7.03;;;5.03;;
41897;SDS011;27576;53.366;-1.498;2023-07-20T04:53:38;7.50;;;5.28;;
41897;SDS011;27576;53.366;-1.498;2023-07-20T04:56:03;8.48;;;5.60;;
41897;SDS011;27576;53.366;-1.498;2023-07-20T04:58:29;8.27;;;5.45;;
41897;SDS011;27576;53.366;-1.498;2023-07-20T05:00:54;7.40;;;5.97;;
41897;SDS011;27576;53.366;-1.498;2023-07-20T05:03:20;7.13;;;5.88;;
41897;SDS011;27576;53.366;-1.498;2023-07-20T05:05:46;8.50;;;6.00;;
41897;SDS011;27576;53.366;-1.498;2023-07-20T05:08:12;9.93;;;6.30;;
41897;SDS011;27576;53.366;-1.498;2023-07-20T05:10:37;8.43;;;6.22;;
41897;SDS011;27576;53.366;-1.498;2023-07-20T05:13:03;8.23;;;6.35;;
41897;SDS011;27576;53.366;-1.498;2023-07-20T05:15:28;9.82;;;6.60;;
41897;SDS011;27576;53.366;-1.498;2023-07-20T05:17:54;7.28;;;5.85;;
41897;SDS011;27576;53.366;-1.498;2023-07-20T05:20:19;9.63;;;6.55;;
41897;SDS011;27576;53.366;-1.498;2023-07-20T05:22:45;9.07;;;6.15;;
41897;SDS011;27576;53.366;-1.498;2023-07-20T05:25:11;13.77;;;7.03;;
41897;SDS011;27576;53.366;-1.498;2023-07-20T05:27:37;8.20;;;6.32;;
41897;SDS011;27576;53.366;-1.498;2023-07-20T05:30:04;9.30;;;6.40;;
41897;SDS011;27576;53.366;-1.498;2023-07-20T05:32:30;7.32;;;6.03;;
41897;SDS011;27576;53.366;-1.498;2023-07-20T05:34:55;10.07;;;6.88;;
41897;SDS011;27576;53.366;-1.498;2023-07-20T05:37:21;8.77;;;6.35;;
41897;SDS011;27576;53.366;-1.498;2023-07-20T05:39:46;12.60;;;6.75;;
41897;SDS011;27576;53.366;-1.498;2023-07-20T05:42:12;10.80;;;6.40;;
41897;SDS011;27576;53.366;-1.498;2023-07-20T05:44:37;8.43;;;6.00;;
41897;SDS011;27576;53.366;-1.498;2023-07-20T05:47:03;7.63;;;5.57;;
41897;SDS011;27576;53.366;-1.498;2023-07-20T05:49:28;8.75;;;6.22;;
41897;SDS011;27576;53.366;-1.498;2023-07-20T05:51:54;7.60;;;6.43;;
41897;SDS011;27576;53.366;-1.498;2023-07-20T05:54:21;9.15;;;6.70;;
41897;SDS011;27576;53.366;-1.498;2023-07-20T05:56:48;9.30;;;5.90;;
41897;SDS011;27576;53.366;-1.498;2023-07-20T05:59:14;7.75;;;5.80;;
41897;SDS011;27576;53.366;-1.498;2023-07-20T06:01:40;7.88;;;6.05;;
41897;SDS011;27576;53.366;-1.498;2023-07-20T06:04:05;11.05;;;7.68;;
41897;SDS011;27576;53.366;-1.498;2023-07-20T06:06:30;10.38;;;7.32;;
41897;SDS011;27576;53.366;-1.498;2023-07-20T06:08:56;11.13;;;6.63;;
41897;SDS011;27576;53.366;-1.498;2023-07-20T06:11:21;11.50;;;7.25;;
41897;SDS011;27576;53.366;-1.498;2023-07-20T06:13:46;12.00;;;7.85;;
41897;SDS011;27576;53.366;-1.498;2023-07-20T06:16:12;9.98;;;7.88;;
41897;SDS011;27576;53.366;-1.498;2023-07-20T06:18:37;12.95;;;7.82;;
41897;SDS011;27576;53.366;-1.498;2023-07-20T06:21:03;9.40;;;7.47;;
41897;SDS011;27576;53.366;-1.498;2023-07-20T06:23:28;12.88;;;9.35;;
41897;SDS011;27576;53.366;-1.498;2023-07-20T06:25:54;13.02;;;9.20;;
41897;SDS011;27576;53.366;-1.498;2023-07-20T06:28:19;12.43;;;8.00;;
41897;SDS011;27576;53.366;-1.498;2023-07-20T06:30:45;13.68;;;9.23;;
41897;SDS011;27576;53.366;-1.498;2023-07-20T06:33:10;11.73;;;8.52;;
41897;SDS011;27576;53.366;-1.498;2023-07-20T06:35:36;12.02;;;8.90;;
41897;SDS011;27576;53.366;-1.498;2023-07-20T06:38:01;12.82;;;9.43;;
41897;SDS011;27576;53.366;-1.498;2023-07-20T06:40:28;11.57;;;9.07;;
41897;SDS011;27576;53.366;-1.498;2023-07-20T06:42:55;12.65;;;9.75;;
41897;SDS011;27576;53.366;-1.498;2023-07-20T06:45:20;12.32;;;9.88;;
41897;SDS011;27576;53.366;-1.498;2023-07-20T06:47:45;12.18;;;9.38;;
41897;SDS011;27576;53.366;-1.498;2023-07-20T06:50:11;10.93;;;9.23;;
41897;SDS011;27576;53.366;-1.498;2023-07-20T06:52:36;13.60;;;9.68;;
41897;SDS011;27576;53.366;-1.498;2023-07-20T06:55:02;12.80;;;9.40;;
41897;SDS011;27576;53.366;-1.498;2023-07-20T06:57:28;13.98;;;9.77;;
41897;SDS011;27576;53.366;-1.498;2023-07-20T06:59:53;13.63;;;10.35;;
41897;SDS011;27576;53.366;-1.498;2023-07-20T07:02:19;13.55;;;10.55;;
41897;SDS011;27576;53.366;-1.498;2023-07-20T07:04:44;15.82;;;10.65;;
41897;SDS011;27576;53.366;-1.498;2023-07-20T07:07:11;13.00;;;10.38;;
41897;SDS011;27576;53.366;-1.498;2023-07-20T07:09:38;13.77;;;10.48;;
41897;SDS011;27576;53.366;-1.498;2023-07-20T07:12:04;14.40;;;9.90;;
41897;SDS011;27576;53.366;-1.498;2023-07-20T07:14:29;13.73;;;10.30;;
41897;SDS011;27576;53.366;-1.498;2023-07-20T07:16:55;11.52;;;10.02;;
41897;SDS011;27576;53.366;-1.498;2023-07-20T07:19:20;14.48;;;11.63;;
41897;SDS011;27576;53.366;-1.498;2023-07-20T07:21:45;14.73;;;10.77;;
41897;SDS011;27576;53.366;-1.498;2023-07-20T07:24:12;13.85;;;10.82;;
41897;SDS011;27576;53.366;-1.498;2023-07-20T07:26:37;12.77;;;10.40;;
41897;SDS011;27576;53.366;-1.498;2023-07-20T07:29:03;13.45;;;10.07;;
41897;SDS011;27576;53.366;-1.498;2023-07-20T07:31:29;16.77;;;11.55;;
41897;SDS011;27576;53.366;-1.498;2023-07-20T07:33:55;16.92;;;11.00;;
41897;SDS011;27576;53.366;-1.498;2023-07-20T07:36:21;16.30;;;12.20;;
41897;SDS011;27576;53.366;-1.498;2023-07-20T07:38:46;16.33;;;11.63;;
41897;SDS011;27576;53.366;-1.498;2023-07-20T07:41:12;15.50;;;11.55;;
41897;SDS011;27576;53.366;-1.498;2023-07-20T07:43:37;17.10;;;11.27;;
41897;SDS011;27576;53.366;-1.498;2023-07-20T07:46:03;14.85;;;10.90;;
41897;SDS011;27576;53.366;-1.498;2023-07-20T07:48:29;17.95;;;12.65;;
41897;SDS011;27576;53.366;-1.498;2023-07-20T07:50:54;15.18;;;11.55;;
41897;SDS011;27576;53.366;-1.498;2023-07-20T07:53:20;17.52;;;12.18;;
41897;SDS011;27576;53.366;-1.498;2023-07-20T07:55:47;16.40;;;11.00;;
41897;SDS011;27576;53.366;-1.498;2023-07-20T07:58:13;17.48;;;10.50;;
41897;SDS011;27576;53.366;-1.498;2023-07-20T08:00:39;15.35;;;11.23;;
41897;SDS011;27576;53.366;-1.498;2023-07-20T08:03:05;13.00;;;10.18;;
41897;SDS011;27576;53.366;-1.498;2023-07-20T08:05:31;14.25;;;11.00;;
41897;SDS011;27576;53.366;-1.498;2023-07-20T08:07:57;13.82;;;10.18;;
41897;SDS011;27576;53.366;-1.498;2023-07-20T08:10:22;13.18;;;9.95;;
41897;SDS011;27576;53.366;-1.498;2023-07-20T08:12:48;15.75;;;10.73;;
41897;SDS011;27576;53.366;-1.498;2023-07-20T08:15:13;13.15;;;11.10;;
41897;SDS011;27576;53.366;-1.498;2023-07-20T08:17:40;11.85;;;9.82;;
41897;SDS011;27576;53.366;-1.498;2023-07-20T08:20:07;13.70;;;10.02;;
41897;SDS011;27576;53.366;-1.498;2023-07-20T08:22:36;10.52;;;9.43;;
41897;SDS011;27576;53.366;-1.498;2023-07-20T08:25:01;12.52;;;9.50;;
41897;SDS011;27576;53.366;-1.498;2023-07-20T08:27:27;14.25;;;9.55;;
41897;SDS011;27576;53.366;-1.498;2023-07-20T08:29:52;11.40;;;8.45;;
41897;SDS011;27576;53.366;-1.498;2023-07-20T08:32:17;12.25;;;9.13;;
41897;SDS011;27576;53.366;-1.498;2023-07-20T08:34:43;13.27;;;9.50;;
41897;SDS011;27576;53.366;-1.498;2023-07-20T08:37:08;11.45;;;9.07;;
41897;SDS011;27576;53.366;-1.498;2023-07-20T08:39:35;11.00;;;9.52;;
41897;SDS011;27576;53.366;-1.498;2023-07-20T08:42:01;10.73;;;9.00;;
41897;SDS011;27576;53.366;-1.498;2023-07-20T08:44:29;11.38;;;8.82;;
41897;SDS011;27576;53.366;-1.498;2023-07-20T08:46:56;10.65;;;8.52;;
41897;SDS011;27576;53.366;-1.498;2023-07-20T08:49:22;11.02;;;8.48;;
41897;SDS011;27576;53.366;-1.498;2023-07-20T08:51:48;10.30;;;8.63;;
41897;SDS011;27576;53.366;-1.498;2023-07-20T08:54:14;15.27;;;8.88;;
41897;SDS011;27576;53.366;-1.498;2023-07-20T08:56:41;10.80;;;8.40;;
41897;SDS011;27576;53.366;-1.498;2023-07-20T08:59:10;8.85;;;7.90;;
41897;SDS011;27576;53.366;-1.498;2023-07-20T09:01:37;12.65;;;8.90;;
41897;SDS011;27576;53.366;-1.498;2023-07-20T09:04:04;9.43;;;8.10;;
41897;SDS011;27576;53.366;-1.498;2023-07-20T09:06:29;10.27;;;8.38;;
41897;SDS011;27576;53.366;-1.498;2023-07-20T09:08:55;13.82;;;8.85;;
41897;SDS011;27576;53.366;-1.498;2023-07-20T09:11:21;11.57;;;8.40;;
41897;SDS011;27576;53.366;-1.498;2023-07-20T09:13:46;10.45;;;8.30;;
41897;SDS011;27576;53.366;-1.498;2023-07-20T09:16:15;9.55;;;7.85;;
41897;SDS011;27576;53.366;-1.498;2023-07-20T09:18:41;14.40;;;8.88;;
41897;SDS011;27576;53.366;-1.498;2023-07-20T09:21:06;11.25;;;8.65;;
41897;SDS011;27576;53.366;-1.498;2023-07-20T09:23:35;11.23;;;8.35;;
41897;SDS011;27576;53.366;-1.498;2023-07-20T09:26:13;10.95;;;9.13;;
41897;SDS011;27576;53.366;-1.498;2023-07-20T09:28:44;10.60;;;8.27;;
41897;SDS011;27576;53.366;-1.498;2023-07-20T09:31:18;10.20;;;8.18;;
41897;SDS011;27576;53.366;-1.498;2023-07-20T09:33:45;11.65;;;8.77;;
41897;SDS011;27576;53.366;-1.498;2023-07-20T09:36:14;12.65;;;9.43;;
41897;SDS011;27576;53.366;-1.498;2023-07-20T09:38:40;12.30;;;9.50;;
41897;SDS011;27576;53.366;-1.498;2023-07-20T09:41:07;13.15;;;8.52;;
41897;SDS011;27576;53.366;-1.498;2023-07-20T09:43:33;13.85;;;9.10;;
41897;SDS011;27576;53.366;-1.498;2023-07-20T09:45:59;10.85;;;8.75;;
41897;SDS011;27576;53.366;-1.498;2023-07-20T09:48:25;12.25;;;8.32;;
41897;SDS011;27576;53.366;-1.498;2023-07-20T09:50:53;12.55;;;8.32;;
41897;SDS011;27576;53.366;-1.498;2023-07-20T09:53:20;11.95;;;9.05;;
41897;SDS011;27576;53.366;-1.498;2023-07-20T09:55:46;11.13;;;8.43;;
41897;SDS011;27576;53.366;-1.498;2023-07-20T09:58:15;12.07;;;8.38;;
41897;SDS011;27576;53.366;-1.498;2023-07-20T10:00:42;12.35;;;8.95;;
41897;SDS011;27576;53.366;-1.498;2023-07-20T10:03:10;13.07;;;10.05;;
41897;SDS011;27576;53.366;-1.498;2023-07-20T10:05:39;14.93;;;9.30;;
41897;SDS011;27576;53.366;-1.498;2023-07-20T10:08:09;12.57;;;9.30;;
41897;SDS011;27576;53.366;-1.498;2023-07-20T10:10:36;14.63;;;9.18;;
41897;SDS011;27576;53.366;-1.498;2023-07-20T10:13:05;11.95;;;9.05;;
41897;SDS011;27576;53.366;-1.498;2023-07-20T10:15:43;12.57;;;9.75;;
41897;SDS011;27576;53.366;-1.498;2023-07-20T10:18:17;12.98;;;9.07;;
41897;SDS011;27576;53.366;-1.498;2023-07-20T10:20:46;10.88;;;8.70;;
41897;SDS011;27576;53.366;-1.498;2023-07-20T10:23:13;13.05;;;9.10;;
41897;SDS011;27576;53.366;-1.498;2023-07-20T10:25:39;11.30;;;8.65;;
41897;SDS011;27576;53.366;-1.498;2023-07-20T10:28:07;11.23;;;8.50;;
41897;SDS011;27576;53.366;-1.498;2023-07-20T10:30:33;9.63;;;8.50;;
41897;SDS011;27576;53.366;-1.498;2023-07-20T10:33:00;10.77;;;8.45;;
41897;SDS011;27576;53.366;-1.498;2023-07-20T10:35:28;12.32;;;8.63;;
41897;SDS011;27576;53.366;-1.498;2023-07-20T10:38:00;15.32;;;10.50;;
41897;SDS011;27576;53.366;-1.498;2023-07-20T10:40:33;11.43;;;9.40;;
41897;SDS011;27576;53.366;-1.498;2023-07-20T10:50:44;13.10;;;9.15;;
41897;SDS011;27576;53.366;-1.498;2023-07-20T10:53:14;12.02;;;9.30;;
41897;SDS011;27576;53.366;-1.498;2023-07-20T10:55:42;10.15;;;8.45;;
41897;SDS011;27576;53.366;-1.498;2023-07-20T10:58:13;10.15;;;8.32;;
41897;SDS011;27576;53.366;-1.498;2023-07-20T11:00:56;13.57;;;9.38;;
41897;SDS011;27576;53.366;-1.498;2023-07-20T11:03:31;11.98;;;8.10;;
41897;SDS011;27576;53.366;-1.498;2023-07-20T11:05:58;10.38;;;8.27;;
41897;SDS011;27576;53.366;-1.498;2023-07-20T11:08:40;10.70;;;8.65;;
41897;SDS011;27576;53.366;-1.498;2023-07-20T11:11:22;8.73;;;7.80;;
41897;SDS011;27576;53.366;-1.498;2023-07-20T11:13:58;12.02;;;8.45;;
41897;SDS011;27576;53.366;-1.498;2023-07-20T11:16:41;12.32;;;9.00;;
41897;SDS011;27576;53.366;-1.498;2023-07-20T11:21:41;13.02;;;9.40;;
41897;SDS011;27576;53.366;-1.498;2023-07-20T11:24:08;9.10;;;7.75;;
41897;SDS011;27576;53.366;-1.498;2023-07-20T11:29:30;11.70;;;7.93;;
41897;SDS011;27576;53.366;-1.498;2023-07-20T11:31:56;8.95;;;7.40;;
41897;SDS011;27576;53.366;-1.498;2023-07-20T11:34:22;10.77;;;7.65;;
41897;SDS011;27576;53.366;-1.498;2023-07-20T11:36:47;9.07;;;7.38;;
41897;SDS011;27576;53.366;-1.498;2023-07-20T11:39:14;7.93;;;6.72;;
41897;SDS011;27576;53.366;-1.498;2023-07-20T11:44:17;9.35;;;7.50;;
41897;SDS011;27576;53.366;-1.498;2023-07-20T11:46:44;9.25;;;7.13;;
41897;SDS011;27576;53.366;-1.498;2023-07-20T11:49:10;10.98;;;7.47;;
41897;SDS011;27576;53.366;-1.498;2023-07-20T11:51:36;9.80;;;7.57;;
41897;SDS011;27576;53.366;-1.498;2023-07-20T11:54:03;8.85;;;7.90;;
41897;SDS011;27576;53.366;-1.498;2023-07-20T11:56:30;9.07;;;7.43;;
41897;SDS011;27576;53.366;-1.498;2023-07-20T11:58:56;9.77;;;7.30;;
41897;SDS011;27576;53.366;-1.498;2023-07-20T12:01:24;9.02;;;7.35;;
41897;SDS011;27576;53.366;-1.498;2023-07-20T12:03:51;9.85;;;6.70;;
41897;SDS011;27576;53.366;-1.498;2023-07-20T12:06:17;10.07;;;7.05;;
41897;SDS011;27576;53.366;-1.498;2023-07-20T12:08:43;10.68;;;6.57;;
41897;SDS011;27576;53.366;-1.498;2023-07-20T12:11:09;7.88;;;6.88;;
41897;SDS011;27576;53.366;-1.498;2023-07-20T12:13:36;8.52;;;6.40;;
41897;SDS011;27576;53.366;-1.498;2023-07-20T12:16:06;7.50;;;6.13;;
41897;SDS011;27576;53.366;-1.498;2023-07-20T12:18:34;7.30;;;6.60;;
41897;SDS011;27576;53.366;-1.498;2023-07-20T12:21:00;8.20;;;5.55;;
41897;SDS011;27576;53.366;-1.498;2023-07-20T12:23:34;8.52;;;5.80;;
41897;SDS011;27576;53.366;-1.498;2023-07-20T12:26:00;6.93;;;5.65;;
41897;SDS011;27576;53.366;-1.498;2023-07-20T12:28:26;7.00;;;5.88;;
41897;SDS011;27576;53.366;-1.498;2023-07-20T12:30:51;9.77;;;5.90;;
41897;SDS011;27576;53.366;-1.498;2023-07-20T12:33:21;7.38;;;6.07;;
41897;SDS011;27576;53.366;-1.498;2023-07-20T12:35:48;5.60;;;4.93;;
41897;SDS011;27576;53.366;-1.498;2023-07-20T12:38:14;7.60;;;6.28;;
41897;SDS011;27576;53.366;-1.498;2023-07-20T12:40:41;7.25;;;6.53;;
41897;SDS011;27576;53.366;-1.498;2023-07-20T12:43:06;6.40;;;5.38;;
41897;SDS011;27576;53.366;-1.498;2023-07-20T12:45:32;5.78;;;5.18;;
41897;SDS011;27576;53.366;-1.498;2023-07-20T12:47:58;7.30;;;6.05;;
41897;SDS011;27576;53.366;-1.498;2023-07-20T12:50:23;6.65;;;5.47;;
41897;SDS011;27576;53.366;-1.498;2023-07-20T12:52:49;6.00;;;5.40;;
41897;SDS011;27576;53.366;-1.498;2023-07-20T12:55:14;5.43;;;4.45;;
41897;SDS011;27576;53.366;-1.498;2023-07-20T12:57:40;9.50;;;5.60;;
41897;SDS011;27576;53.366;-1.498;2023-07-20T13:00:06;11.60;;;5.75;;
41897;SDS011;27576;53.366;-1.498;2023-07-20T13:02:35;6.43;;;5.07;;
41897;SDS011;27576;53.366;-1.498;2023-07-20T13:05:01;6.55;;;5.63;;
41897;SDS011;27576;53.366;-1.498;2023-07-20T13:07:30;5.47;;;4.95;;
41897;SDS011;27576;53.366;-1.498;2023-07-20T13:09:58;4.82;;;4.43;;
41897;SDS011;27576;53.366;-1.498;2023-07-20T13:12:25;5.57;;;4.97;;
41897;SDS011;27576;53.366;-1.498;2023-07-20T13:14:51;4.97;;;4.47;;
41897;SDS011;27576;53.366;-1.498;2023-07-20T13:17:16;5.00;;;4.50;;
41897;SDS011;27576;53.366;-1.498;2023-07-20T13:19:42;5.13;;;4.57;;
41897;SDS011;27576;53.366;-1.498;2023-07-20T13:22:07;5.47;;;4.97;;
41897;SDS011;27576;53.366;-1.498;2023-07-20T13:24:32;6.85;;;4.95;;
41897;SDS011;27576;53.366;-1.498;2023-07-20T13:26:58;5.65;;;4.45;;
41897;SDS011;27576;53.366;-1.498;2023-07-20T13:29:23;4.60;;;4.20;;
41897;SDS011;27576;53.366;-1.498;2023-07-20T13:31:50;5.47;;;4.10;;
41897;SDS011;27576;53.366;-1.498;2023-07-20T13:34:15;5.57;;;5.00;;
41897;SDS011;27576;53.366;-1.498;2023-07-20T13:36:40;5.70;;;4.43;;
41897;SDS011;27576;53.366;-1.498;2023-07-20T13:39:06;6.32;;;4.47;;
41897;SDS011;27576;53.366;-1.498;2023-07-20T13:41:31;4.80;;;4.25;;
41897;SDS011;27576;53.366;-1.498;2023-07-20T13:43:57;4.80;;;4.32;;
41897;SDS011;27576;53.366;-1.498;2023-07-20T13:46:22;7.07;;;4.35;;
41897;SDS011;27576;53.366;-1.498;2023-07-20T13:48:48;4.90;;;4.40;;
41897;SDS011;27576;53.366;-1.498;2023-07-20T13:51:14;4.63;;;4.22;;
41897;SDS011;27576;53.366;-1.498;2023-07-20T13:53:39;4.97;;;4.30;;
41897;SDS011;27576;53.366;-1.498;2023-07-20T13:56:05;6.10;;;4.38;;
41897;SDS011;27576;53.366;-1.498;2023-07-20T13:58:31;5.72;;;4.00;;
41897;SDS011;27576;53.366;-1.498;2023-07-20T14:00:56;6.03;;;3.65;;
41897;SDS011;27576;53.366;-1.498;2023-07-20T14:03:21;5.18;;;3.47;;
41897;SDS011;27576;53.366;-1.498;2023-07-20T14:05:47;3.50;;;3.20;;
41897;SDS011;27576;53.366;-1.498;2023-07-20T14:08:13;5.20;;;3.60;;
41897;SDS011;27576;53.366;-1.498;2023-07-20T14:10:39;5.07;;;3.97;;
41897;SDS011;27576;53.366;-1.498;2023-07-20T14:13:04;4.82;;;3.72;;
41897;SDS011;27576;53.366;-1.498;2023-07-20T14:15:30;3.92;;;3.53;;
41897;SDS011;27576;53.366;-1.498;2023-07-20T14:17:56;3.95;;;3.55;;
41897;SDS011;27576;53.366;-1.498;2023-07-20T14:20:21;4.95;;;3.40;;
41897;SDS011;27576;53.366;-1.498;2023-07-20T14:22:46;3.67;;;3.38;;
41897;SDS011;27576;53.366;-1.498;2023-07-20T14:25:13;3.15;;;2.88;;
41897;SDS011;27576;53.366;-1.498;2023-07-20T14:27:38;3.65;;;2.90;;
41897;SDS011;27576;53.366;-1.498;2023-07-20T14:30:04;4.05;;;3.13;;
41897;SDS011;27576;53.366;-1.498;2023-07-20T14:32:30;4.15;;;3.75;;
41897;SDS011;27576;53.366;-1.498;2023-07-20T14:34:58;4.10;;;3.33;;
41897;SDS011;27576;53.366;-1.498;2023-07-20T14:37:24;5.07;;;3.40;;
41897;SDS011;27576;53.366;-1.498;2023-07-20T14:39:49;3.80;;;3.38;;
41897;SDS011;27576;53.366;-1.498;2023-07-20T14:42:15;4.68;;;3.63;;
41897;SDS011;27576;53.366;-1.498;2023-07-20T14:44:40;4.13;;;3.38;;
41897;SDS011;27576;53.366;-1.498;2023-07-20T14:47:05;5.25;;;3.42;;